createdAt,value
2022-11-02T00:00:55.583Z,101167.31
2022-11-02T00:03:22.419Z,101164.44
2022-11-02T00:05:49.260Z,101163.13
2022-11-02T00:08:16.094Z,101162.28
2022-11-02T00:10:42.976Z,101161.44
2022-11-02T00:13:09.778Z,101160.47
2022-11-02T00:15:37.344Z,101163.59
2022-11-02T00:18:10.711Z,101157.03
2022-11-02T00:20:40.302Z,101155.28
2022-11-02T00:23:07.864Z,101156.94
2022-11-02T00:25:45.345Z,101158.31
2022-11-02T00:28:13.286Z,101154.22
2022-11-02T00:30:40.210Z,101154.31
2022-11-02T00:33:07.133Z,101155.78
2022-11-02T00:35:35.529Z,101155.16
2022-11-02T00:38:02.766Z,101149.00
2022-11-02T00:40:29.919Z,101150.78
2022-11-02T00:42:56.771Z,101147.63
2022-11-02T00:45:23.651Z,101152.47
2022-11-02T00:47:51.464Z,101145.31
2022-11-02T00:50:18.401Z,101152.59
2022-11-02T00:52:45.281Z,101154.97
2022-11-02T00:55:12.581Z,101151.50
2022-11-02T00:57:40.433Z,101147.31
2022-11-02T01:00:10.083Z,101145.25
2022-11-02T01:02:37.934Z,101151.78
2022-11-02T01:05:06.904Z,101144.84
2022-11-02T01:07:34.071Z,101143.94
2022-11-02T01:10:00.937Z,101149.97
2022-11-02T01:12:27.768Z,101138.69
2022-11-02T01:14:54.574Z,101142.84
2022-11-02T01:17:21.595Z,101147.16
2022-11-02T01:19:51.186Z,101137.63
2022-11-02T01:22:18.167Z,101140.59
2022-11-02T01:24:45.001Z,101141.19
2022-11-02T01:27:11.846Z,101135.44
2022-11-02T01:29:38.664Z,101140.47
2022-11-02T01:32:05.848Z,101137.59
2022-11-02T01:34:32.700Z,101136.81
2022-11-02T01:36:59.611Z,101130.81
2022-11-02T01:39:26.390Z,101132.50
2022-11-02T01:41:58.179Z,101135.72
2022-11-02T01:44:32.903Z,101130.50
2022-11-02T01:47:07.607Z,101135.44
2022-11-02T01:49:38.959Z,101135.88
2022-11-02T01:52:30.848Z,101132.81
2022-11-02T01:55:21.976Z,101124.75
2022-11-02T01:57:58.016Z,101132.63
2022-11-02T02:00:24.852Z,101129.03
2022-11-02T02:03:10.742Z,101123.50
2022-11-02T02:05:43.220Z,101135.41
2022-11-02T02:08:12.463Z,101128.53
2022-11-02T02:10:39.615Z,101126.53
2022-11-02T02:13:07.662Z,101121.19
2022-11-02T02:16:06.447Z,101115.22
2022-11-02T02:18:59.725Z,101118.81
2022-11-02T02:22:24.754Z,101115.78
2022-11-02T02:25:48.013Z,101121.72
2022-11-02T02:29:04.736Z,101116.59
2022-11-02T02:31:42.743Z,101112.91
2022-11-02T02:34:21.701Z,101119.19
2022-11-02T02:37:24.130Z,101115.41
2022-11-02T02:40:04.628Z,101112.19
2022-11-02T02:42:42.189Z,101114.38
2022-11-02T02:45:22.766Z,101108.41
2022-11-02T02:48:01.857Z,101111.03
2022-11-02T02:50:35.952Z,101116.69
2022-11-02T02:53:06.695Z,101106.66
2022-11-02T02:55:40.255Z,101096.63
2022-11-02T02:58:12.955Z,101096.50
2022-11-02T03:00:40.262Z,101101.84
2022-11-02T03:03:20.388Z,101096.63
2022-11-02T03:06:16.734Z,101095.22
2022-11-02T03:09:08.398Z,101093.47
2022-11-02T03:11:49.182Z,101094.81
2022-11-02T03:14:33.052Z,101097.34
2022-11-02T03:17:19.881Z,101097.66
2022-11-02T03:20:26.547Z,101102.03
2022-11-02T03:23:22.545Z,101094.75
2022-11-02T03:26:18.697Z,101087.41
2022-11-02T03:28:59.780Z,101089.09
2022-11-02T03:31:40.393Z,101086.59
2022-11-02T03:34:37.144Z,101079.19
2022-11-02T03:37:14.127Z,101098.19
2022-11-02T03:39:52.245Z,101106.47
2022-11-02T03:42:27.172Z,101114.25
2022-11-02T03:45:23.396Z,101116.81
2022-11-02T03:47:56.281Z,101112.75
2022-11-02T03:50:24.250Z,101114.50
2022-11-02T03:53:01.876Z,101113.88
2022-11-02T03:55:40.787Z,101120.13
2022-11-02T03:58:11.547Z,101132.59
2022-11-02T04:00:47.712Z,101135.41
2022-11-02T04:03:15.259Z,101143.22
2022-11-02T04:05:42.117Z,101147.84
2022-11-02T04:08:21.849Z,101148.88
2022-11-02T04:11:11.926Z,101153.56
2022-11-02T04:13:57.036Z,101166.22
2022-11-02T04:16:26.618Z,101165.78
2022-11-02T04:19:13.766Z,101167.72
2022-11-02T04:21:41.227Z,101177.66
2022-11-02T04:24:27.692Z,101178.81
2022-11-02T04:26:54.594Z,101173.44
2022-11-02T04:29:21.419Z,101177.84
2022-11-02T04:31:48.202Z,101175.78
2022-11-02T04:34:15.035Z,101175.66
2022-11-02T04:36:41.872Z,101175.31
2022-11-02T04:39:08.694Z,101168.81
2022-11-02T04:41:41.518Z,101171.84
2022-11-02T04:44:17.338Z,101178.72
2022-11-02T04:46:49.058Z,101186.47
2022-11-02T04:49:18.901Z,101190.44
2022-11-02T04:51:49.848Z,101195.91
2022-11-02T04:54:16.861Z,101191.06
2022-11-02T04:56:43.881Z,101187.41
2022-11-02T04:59:10.832Z,101186.16
2022-11-02T05:01:40.384Z,101187.41
2022-11-02T05:04:07.300Z,101185.78
2022-11-02T05:06:34.361Z,101184.47
2022-11-02T05:09:01.184Z,101185.84
2022-11-02T05:11:33.484Z,101187.41
2022-11-02T05:14:03.511Z,101199.88
2022-11-02T05:16:30.340Z,101200.97
2022-11-02T05:18:58.078Z,101198.00
2022-11-02T05:21:24.891Z,101199.69
2022-11-02T05:23:59.292Z,101207.84
2022-11-02T05:26:26.087Z,101204.31
2022-11-02T05:28:53.005Z,101210.06
2022-11-02T05:31:19.843Z,101202.13
2022-11-02T05:33:46.763Z,101211.19
2022-11-02T05:36:13.580Z,101209.13
2022-11-02T05:38:40.440Z,101208.31
2022-11-02T05:41:07.269Z,101208.72
2022-11-02T05:43:34.153Z,101218.56
2022-11-02T05:46:03.031Z,101220.56
2022-11-02T05:48:33.427Z,101219.88
2022-11-02T05:51:03.608Z,101232.16
2022-11-02T05:53:33.791Z,101227.16
2022-11-02T05:56:02.403Z,101229.66
2022-11-02T05:58:30.241Z,101224.75
2022-11-02T06:01:01.673Z,101234.06
2022-11-02T06:03:29.494Z,101241.72
2022-11-02T06:06:07.610Z,101235.00
2022-11-02T06:08:36.321Z,101242.63
2022-11-02T06:11:11.885Z,101244.47
2022-11-02T06:13:39.831Z,101255.81
2022-11-02T06:16:09.801Z,101245.03
2022-11-02T06:18:38.084Z,101243.47
2022-11-02T06:21:05.380Z,101242.88
2022-11-02T06:23:32.194Z,101250.69
2022-11-02T06:26:00.275Z,101249.22
2022-11-02T06:28:28.151Z,101253.94
2022-11-02T06:30:55.474Z,101252.41
2022-11-02T06:33:22.675Z,101268.16
2022-11-02T06:35:52.319Z,101270.16
2022-11-02T06:38:19.210Z,101278.22
2022-11-02T06:40:57.498Z,101275.72
2022-11-02T06:43:25.385Z,101284.81
2022-11-02T06:45:57.385Z,101292.97
2022-11-02T06:48:28.638Z,101300.16
2022-11-02T06:50:58.389Z,101295.47
2022-11-02T06:53:25.450Z,101307.94
2022-11-02T06:55:57.105Z,101310.44
2022-11-02T06:58:24.886Z,101310.56
2022-11-02T07:01:02.336Z,101317.88
2022-11-02T07:03:30.706Z,101322.59
2022-11-02T07:05:57.839Z,101332.09
2022-11-02T07:08:25.561Z,101337.47
2022-11-02T07:10:52.420Z,101342.59
2022-11-02T07:13:19.466Z,101350.75
2022-11-02T07:15:46.552Z,101360.06
2022-11-02T07:18:14.152Z,101354.50
2022-11-02T07:20:40.952Z,101350.38
2022-11-02T07:23:09.112Z,101358.28
2022-11-02T07:25:36.371Z,101358.03
2022-11-02T07:28:04.107Z,101361.25
2022-11-02T07:30:34.507Z,101359.03
2022-11-02T07:33:01.903Z,101362.50
2022-11-02T07:35:29.081Z,101367.69
2022-11-02T07:38:01.745Z,101372.66
2022-11-02T07:40:30.385Z,101367.41
2022-11-02T07:42:58.157Z,101374.53
2022-11-02T07:45:26.019Z,101375.28
2022-11-02T07:47:52.901Z,101383.66
2022-11-02T07:50:22.848Z,101391.88
2022-11-02T07:52:55.177Z,101398.09
2022-11-02T07:55:25.148Z,101405.00
2022-11-02T07:58:01.669Z,101416.56
2022-11-02T08:00:32.880Z,101416.66
2022-11-02T08:03:02.224Z,101411.81
2022-11-02T08:05:31.413Z,101413.81
2022-11-02T08:07:58.354Z,101431.13
2022-11-02T08:10:26.071Z,101420.47
2022-11-02T08:12:53.529Z,101427.56
2022-11-02T08:15:20.346Z,101426.91
2022-11-02T08:17:47.315Z,101423.56
2022-11-02T08:20:14.333Z,101424.72
2022-11-02T08:22:41.458Z,101428.47
2022-11-02T08:25:08.834Z,101423.97
2022-11-02T08:27:35.741Z,101430.94
2022-11-02T08:30:02.994Z,101429.84
2022-11-02T08:32:29.857Z,101427.72
2022-11-02T08:34:56.643Z,101429.31
2022-11-02T08:37:23.459Z,101431.50
2022-11-02T08:39:50.325Z,101428.06
2022-11-02T08:42:17.147Z,101424.38
2022-11-02T08:44:43.971Z,101432.44
2022-11-02T08:47:10.853Z,101439.66
2022-11-02T08:49:37.674Z,101431.44
2022-11-02T08:52:04.572Z,101427.59
2022-11-02T08:54:31.421Z,101431.47
2022-11-02T08:56:58.317Z,101429.53
2022-11-02T08:59:25.737Z,101433.59
2022-11-02T09:01:52.571Z,101436.53
2022-11-02T09:04:19.516Z,101430.28
2022-11-02T09:06:46.312Z,101433.81
2022-11-02T09:09:13.160Z,101431.38
2022-11-02T09:11:39.946Z,101434.41
2022-11-02T09:14:07.783Z,101436.41
2022-11-02T09:16:40.174Z,101427.66
2022-11-02T09:19:08.215Z,101436.91
2022-11-02T09:21:35.043Z,101429.44
2022-11-02T09:24:01.899Z,101428.88
2022-11-02T09:26:28.767Z,101429.94
2022-11-02T09:28:55.541Z,101424.81
2022-11-02T09:31:22.352Z,101412.00
2022-11-02T09:33:49.127Z,101427.22
2022-11-02T09:36:15.950Z,101436.13
2022-11-02T09:38:42.882Z,101428.59
2022-11-02T09:41:31.294Z,101420.44
2022-11-02T09:44:14.705Z,101428.38
2022-11-02T09:46:46.198Z,101419.91
2022-11-02T09:49:17.694Z,101423.19
2022-11-02T09:51:56.439Z,101415.03
2022-11-02T09:54:34.314Z,101408.69
2022-11-02T09:57:21.796Z,101416.50
2022-11-02T09:59:49.774Z,101420.28
2022-11-02T10:02:44.135Z,101413.78
2022-11-02T10:05:38.936Z,101419.31
2022-11-02T10:08:34.744Z,101422.06
2022-11-02T10:11:16.057Z,101417.06
2022-11-02T10:14:21.769Z,101422.81
2022-11-02T10:16:57.312Z,101406.06
2022-11-02T10:19:27.800Z,101401.91
2022-11-02T10:21:58.457Z,101391.88
2022-11-02T10:24:38.454Z,101382.81
2022-11-02T10:27:20.276Z,101374.28
2022-11-02T10:30:11.401Z,101373.59
2022-11-02T10:32:40.631Z,101377.09
2022-11-02T10:36:12.021Z,101374.81
2022-11-02T10:39:11.970Z,101371.78
2022-11-02T10:41:56.762Z,101378.84
2022-11-02T10:44:50.954Z,101389.69
2022-11-02T10:47:40.128Z,101383.44
2022-11-02T10:50:45.270Z,101391.16
2022-11-02T10:53:39.543Z,101401.53
2022-11-02T10:56:22.164Z,101405.19
2022-11-02T10:59:00.818Z,101392.75
2022-11-02T11:01:30.307Z,101400.72
2022-11-02T11:04:11.038Z,101403.94
2022-11-02T11:06:41.140Z,101393.06
2022-11-02T11:09:15.850Z,101412.28
2022-11-02T11:11:56.113Z,101406.16
2022-11-02T11:20:34.638Z,101395.31
2022-11-02T11:23:20.440Z,101395.44
2022-11-02T11:26:05.259Z,101390.72
2022-11-02T11:28:53.028Z,101388.91
2022-11-02T11:31:20.545Z,101387.81
2022-11-02T11:34:01.646Z,101375.88
2022-11-02T11:36:34.550Z,101379.34
2022-11-02T11:39:22.200Z,101375.56
2022-11-02T11:41:49.049Z,101377.09
2022-11-02T11:44:16.271Z,101366.94
2022-11-02T11:46:53.339Z,101374.97
2022-11-02T11:49:48.155Z,101367.47
2022-11-02T11:52:31.220Z,101372.38
2022-11-02T11:55:02.037Z,101371.41
2022-11-02T11:57:32.501Z,101368.63
2022-11-02T12:00:04.773Z,101365.56
2022-11-02T12:02:40.965Z,101366.94
2022-11-02T12:05:12.108Z,101368.38
2022-11-02T12:08:19.339Z,101369.00
2022-11-02T12:11:03.817Z,101379.94
2022-11-02T12:14:08.045Z,101374.69
2022-11-02T12:16:56.413Z,101376.91
2022-11-02T12:19:51.726Z,101378.63
2022-11-02T12:22:53.646Z,101369.13
2022-11-02T12:25:45.670Z,101372.84
2022-11-02T12:28:24.383Z,101369.13
2022-11-02T12:31:15.666Z,101365.78
2022-11-02T12:34:12.438Z,101360.91
2022-11-02T12:37:09.808Z,101354.53
2022-11-02T12:39:44.864Z,101349.38
2022-11-02T12:42:35.791Z,101347.44
2022-11-02T12:45:34.816Z,101343.69
2022-11-02T12:48:06.112Z,101345.50
2022-11-02T12:51:05.266Z,101351.50
2022-11-02T12:54:12.060Z,101347.59
2022-11-02T12:56:55.240Z,101353.84
2022-11-02T12:59:42.183Z,101354.53
2022-11-02T13:02:30.272Z,101354.34
2022-11-02T13:05:05.350Z,101356.47
2022-11-02T13:08:02.616Z,101347.31
2022-11-02T13:10:42.042Z,101349.13
2022-11-02T13:13:17.641Z,101343.00
2022-11-02T13:15:46.572Z,101332.84
2022-11-02T13:18:38.216Z,101329.41
2022-11-02T13:21:05.690Z,101329.66
2022-11-02T13:23:46.139Z,101326.28
2022-11-02T13:26:30.098Z,101325.34
2022-11-02T13:29:30.001Z,101324.94
2022-11-02T13:32:15.173Z,101324.38
2022-11-02T13:34:46.116Z,101329.13
2022-11-02T13:37:40.097Z,101330.47
2022-11-02T13:40:26.470Z,101327.53
2022-11-02T13:45:41.066Z,101322.16
2022-11-02T13:48:54.173Z,101324.34
2022-11-02T13:51:39.879Z,101319.88
2022-11-02T13:54:22.602Z,101310.47
2022-11-02T13:56:55.327Z,101309.78
2022-11-02T13:59:29.840Z,101322.25
2022-11-02T14:02:00.349Z,101317.09
2022-11-02T14:04:30.712Z,101314.88
2022-11-02T14:07:01.286Z,101315.75
2022-11-02T14:09:36.162Z,101313.94
2022-11-02T14:12:20.907Z,101312.19
2022-11-02T14:15:13.494Z,101302.41
2022-11-02T14:18:09.531Z,101303.47
2022-11-02T14:20:40.506Z,101313.19
2022-11-02T14:23:18.375Z,101307.50
2022-11-02T14:25:53.594Z,101307.91
2022-11-02T14:28:23.237Z,101301.22
2022-11-02T14:31:05.246Z,101301.50
2022-11-02T14:33:53.353Z,101290.66
2022-11-02T14:36:20.205Z,101302.97
2022-11-02T14:39:07.110Z,101300.19
2022-11-02T14:42:12.585Z,101302.91
2022-11-02T14:45:26.351Z,101297.38
2022-11-02T14:48:05.202Z,101304.97
2022-11-02T14:50:32.918Z,101297.31
2022-11-02T14:53:17.755Z,101297.31
2022-11-02T14:55:56.101Z,101293.53
2022-11-02T14:58:32.417Z,101294.38
2022-11-02T15:01:02.722Z,101290.41
2022-11-02T15:03:34.019Z,101294.66
2022-11-02T15:06:25.486Z,101290.38
2022-11-02T15:09:00.822Z,101288.84
2022-11-02T15:11:57.609Z,101292.94
2022-11-02T15:14:36.278Z,101291.63
2022-11-02T15:17:24.576Z,101293.44
2022-11-02T15:20:09.868Z,101294.00
2022-11-02T15:22:42.848Z,101289.13
2022-11-02T15:25:09.679Z,101289.25
2022-11-02T15:27:40.740Z,101279.75
2022-11-02T15:30:14.683Z,101273.16
2022-11-02T15:32:49.096Z,101272.81
2022-11-02T15:35:30.449Z,101282.56
2022-11-02T15:38:16.910Z,101277.69
2022-11-02T15:40:59.158Z,101276.41
2022-11-02T15:43:50.956Z,101278.59
2022-11-02T15:46:48.702Z,101269.78
2022-11-02T15:50:09.134Z,101266.84
2022-11-02T15:53:22.252Z,101266.50
2022-11-02T15:56:21.291Z,101266.41
2022-11-02T15:59:08.927Z,101269.78
2022-11-02T16:01:35.969Z,101273.03
2022-11-02T16:04:06.145Z,101267.44
2022-11-02T16:06:41.014Z,101272.09
2022-11-02T16:09:28.640Z,101268.41
2022-11-02T16:12:12.857Z,101260.31
2022-11-02T16:14:40.748Z,101256.13
2022-11-02T16:17:26.170Z,101264.78
2022-11-02T16:20:15.727Z,101260.47
2022-11-02T16:22:54.697Z,101255.56
2022-11-02T16:25:45.504Z,101258.06
2022-11-02T16:28:20.901Z,101254.16
2022-11-02T16:31:18.588Z,101251.78
2022-11-02T16:33:52.660Z,101262.75
2022-11-02T16:36:39.774Z,101257.53
2022-11-02T16:39:16.409Z,101254.28
2022-11-02T16:41:50.665Z,101262.50
2022-11-02T16:44:34.252Z,101268.84
2022-11-02T16:47:07.227Z,101262.91
2022-11-02T16:49:54.209Z,101257.69
2022-11-02T16:52:33.613Z,101255.06
2022-11-02T16:55:00.964Z,101253.75
2022-11-02T16:57:31.200Z,101256.16
2022-11-02T17:00:07.807Z,101251.13
2022-11-02T17:02:41.069Z,101253.66
2022-11-02T17:05:23.922Z,101251.97
2022-11-02T17:08:04.805Z,101253.50
2022-11-02T17:10:36.057Z,101246.53
2022-11-02T17:13:08.906Z,101241.53
2022-11-02T17:15:37.416Z,101242.59
2022-11-02T17:18:15.272Z,101241.28
2022-11-02T17:20:42.151Z,101244.41
2022-11-02T17:23:30.747Z,101235.44
2022-11-02T17:26:22.541Z,101244.47
2022-11-02T17:28:57.289Z,101245.31
2022-11-02T17:31:25.691Z,101247.25
2022-11-02T17:33:53.784Z,101245.91
2022-11-02T17:36:21.907Z,101239.09
2022-11-02T17:38:48.726Z,101239.09
2022-11-02T17:41:37.715Z,101241.72
2022-11-02T17:44:14.176Z,101245.19
2022-11-02T17:46:44.677Z,101238.88
2022-11-02T17:49:12.983Z,101245.25
2022-11-02T17:51:41.932Z,101241.44
2022-11-02T17:54:13.843Z,101241.44
2022-11-02T17:56:41.408Z,101243.94
2022-11-02T17:59:08.397Z,101238.72
2022-11-02T18:01:35.455Z,101247.16
2022-11-02T18:04:02.435Z,101237.94
2022-11-02T18:06:29.735Z,101240.28
2022-11-02T18:09:11.569Z,101231.03
2022-11-02T18:11:38.365Z,101232.09
2022-11-02T18:14:05.215Z,101235.66
2022-11-02T18:16:32.281Z,101233.22
2022-11-02T18:18:59.170Z,101236.94
2022-11-02T18:21:25.990Z,101236.94
2022-11-02T18:23:52.804Z,101240.34
2022-11-02T18:26:19.670Z,101248.94
2022-11-02T18:28:46.448Z,101238.47
2022-11-02T18:31:13.223Z,101227.16
2022-11-02T18:33:43.478Z,101229.78
2022-11-02T18:36:11.264Z,101229.56
2022-11-02T18:38:38.288Z,101226.94
2022-11-02T18:41:26.892Z,101225.38
2022-11-02T18:44:02.177Z,101229.47
2022-11-02T18:46:30.727Z,101224.97
2022-11-02T18:48:58.430Z,101220.94
2022-11-02T18:51:25.681Z,101219.75
2022-11-02T18:53:55.862Z,101217.13
2022-11-02T18:56:22.972Z,101212.00
2022-11-02T18:58:51.982Z,101224.03
2022-11-02T19:01:20.840Z,101224.91
2022-11-02T19:03:59.029Z,101217.31
2022-11-02T19:06:46.980Z,101220.28
2022-11-02T19:09:18.688Z,101213.91
2022-11-02T19:11:53.411Z,101207.31
2022-11-02T19:14:22.385Z,101210.16
2022-11-02T19:16:49.540Z,101206.13
2022-11-02T19:19:16.350Z,101210.09
2022-11-02T19:21:43.328Z,101206.91
2022-11-02T19:24:11.267Z,101197.09
2022-11-02T19:26:38.646Z,101192.31
2022-11-02T19:29:06.706Z,101194.72
2022-11-02T19:31:36.106Z,101194.09
2022-11-02T19:34:04.046Z,101199.75
2022-11-02T19:36:31.814Z,101203.13
2022-11-02T19:39:00.116Z,101198.97
2022-11-02T19:41:27.012Z,101193.63
2022-11-02T19:43:53.817Z,101191.25
2022-11-02T19:46:22.378Z,101192.00
2022-11-02T19:48:49.914Z,101185.75
2022-11-02T19:51:22.714Z,101184.78
2022-11-02T19:53:58.297Z,101183.00
2022-11-02T19:56:27.627Z,101171.69
2022-11-02T19:58:55.403Z,101177.34
2022-11-02T20:01:31.865Z,101170.13
2022-11-02T20:03:58.888Z,101171.50
2022-11-02T20:06:40.132Z,101173.06
2022-11-02T20:09:14.416Z,101163.03
2022-11-02T20:11:44.515Z,101166.25
2022-11-02T20:14:13.573Z,101171.50
2022-11-02T20:16:40.966Z,101171.81
2022-11-02T20:19:08.975Z,101168.34
2022-11-02T20:21:41.532Z,101166.91
2022-11-02T20:24:10.762Z,101162.19
2022-11-02T20:26:41.125Z,101160.63
2022-11-02T20:29:10.909Z,101162.06
2022-11-02T20:31:41.108Z,101158.72
2022-11-02T20:34:08.987Z,101154.22
2022-11-02T20:36:36.317Z,101163.84
2022-11-02T20:39:04.779Z,101170.66
2022-11-02T20:41:31.811Z,101168.34
2022-11-02T20:43:58.885Z,101164.41
2022-11-02T20:46:37.609Z,101157.06
2022-11-02T20:49:29.003Z,101164.50
2022-11-02T20:51:53.451Z,101157.06
2022-11-02T20:54:22.119Z,101161.78
2022-11-02T20:56:49.795Z,101163.78
2022-11-02T20:59:17.104Z,101156.97
2022-11-02T21:01:44.145Z,101152.69
2022-11-02T21:04:15.234Z,101157.81
2022-11-02T21:06:42.273Z,101147.97
2022-11-02T21:09:11.999Z,101146.22
2022-11-02T21:11:57.985Z,101141.59
2022-11-02T21:14:25.277Z,101137.22
2022-11-02T21:16:52.160Z,101144.13
2022-11-02T21:19:19.033Z,101138.66
2022-11-02T21:21:45.832Z,101132.06
2022-11-02T21:24:12.735Z,101132.75
2022-11-02T21:26:39.525Z,101131.78
2022-11-02T21:29:06.409Z,101125.06
2022-11-02T21:31:33.238Z,101127.41
2022-11-02T21:34:00.142Z,101127.06
2022-11-02T21:36:26.932Z,101129.16
2022-11-02T21:38:53.870Z,101128.91
2022-11-02T21:41:26.465Z,101123.69
2022-11-02T21:43:55.423Z,101122.56
2022-11-02T21:46:24.078Z,101116.91
2022-11-02T21:48:51.024Z,101119.22
2022-11-02T21:51:20.886Z,101117.06
2022-11-02T21:53:50.022Z,101114.81
2022-11-02T21:56:23.134Z,101119.19
2022-11-02T21:58:49.994Z,101119.00
2022-11-02T22:01:45.191Z,101116.91
2022-11-02T22:04:32.759Z,101114.34
2022-11-02T22:07:00.982Z,101112.31
2022-11-02T22:09:28.723Z,101109.50
2022-11-02T22:12:15.029Z,101106.66
2022-11-02T22:14:43.913Z,101106.56
2022-11-02T22:17:16.670Z,101105.91
2022-11-02T22:19:55.640Z,101099.22
2022-11-02T22:22:22.461Z,101102.41
2022-11-02T22:24:49.305Z,101100.84
2022-11-02T22:27:16.163Z,101101.13
2022-11-02T22:29:42.995Z,101094.34
2022-11-02T22:32:09.839Z,101093.56
2022-11-02T22:34:36.689Z,101084.97
2022-11-02T22:37:41.613Z,101076.59
2022-11-02T22:40:09.120Z,101080.00
2022-11-02T22:42:39.766Z,101075.88
2022-11-02T22:45:09.683Z,101075.53
2022-11-02T22:47:36.781Z,101063.97
2022-11-02T22:50:04.036Z,101067.84
2022-11-02T22:52:30.843Z,101062.84
2022-11-02T22:54:57.615Z,101062.66
2022-11-02T22:57:24.417Z,101058.66
2022-11-02T22:59:51.210Z,101049.88
2022-11-02T23:02:18.052Z,101052.59
2022-11-02T23:04:44.864Z,101049.13
2022-11-02T23:07:11.654Z,101061.47
2022-11-02T23:09:38.445Z,101056.00
2022-11-02T23:12:05.476Z,101055.22
2022-11-02T23:14:32.274Z,101059.47
2022-11-02T23:16:59.065Z,101059.41
2022-11-02T23:19:28.658Z,101060.88
2022-11-02T23:22:17.994Z,101049.25
2022-11-02T23:25:08.106Z,101039.06
2022-11-02T23:27:57.626Z,101038.94
2022-11-02T23:30:49.536Z,101043.44
2022-11-02T23:33:16.414Z,101042.09
2022-11-02T23:36:02.338Z,101047.34
2022-11-02T23:38:49.985Z,101043.00
2022-11-02T23:41:18.193Z,101052.81
2022-11-02T23:43:45.353Z,101046.34
2022-11-02T23:46:12.237Z,101043.34
2022-11-02T23:48:41.857Z,101043.00
2022-11-02T23:51:28.851Z,101043.81
2022-11-02T23:54:14.104Z,101043.09
2022-11-02T23:56:43.676Z,101038.13
2022-11-02T23:59:17.574Z,101036.09
